Decoded Metar for EPKT (KATOWICE in POLAND) (IATA:KTW) | Meteo·Mobile Aviation Weather
aviador You're here:

EPKT Decoded Metar

KATOWICE in POLAND
Report Time2019-01-17 23:30:00
UTC Time2019-01-18 00:04:17
Flight Rules vfr VFR
Wind220° at 14 kt
W.Decomp.*RWY 27: 8.2 kt HW 11.3 kt LCW
W.Rank220° ranks 1
Current wind is above 220° avg. (8.6)
Visibility9999 m
Phenomena:N/A
Clouds:N/A
Expected CloudBase > 2,000 ft AGL from Temp-Dew spread
CeilingNone
Temp05°C (ISA -8)
Dew Point00°C (70% RH)
AAT-2.0°C
QNH1004 hPa
Density Alt344 ft
Elevation932 ft
Report Wrong Elevation
Raw Report
EPKT 172330Z 22014KT CAVOK 05/M00 Q1004=

Extra information for EPKT:More info

Metar Taf Metar & Taf Last 4 Metars F.Rules Stats Wind Profile Meteogram Temp Stats Airport Information Weather charts Add Link Nearby VenuesMetar ALERT Operation Metar Decoded Social comments